Time;durP1;ratioP1;P1;durP2;ratioP2;P2;SDS_P1;SDS_P2;PMS_P1;PMS_P2;Temp;Humidity;BMP_temperature;BMP_pressure;BME280_temperature;BME280_humidity;BME280_pressure;Samples;Min_cycle;Max_cycle;Signal;HPM_P1;HPM_P2
2023/11/03 00:00:12;;;;;;;4.17;1.40;;;11.00;81.90;;;;;;4941751;29;20201;-72
2023/11/03 00:02:39;;;;;;;7.40;1.90;;;11.00;82.00;;;;;;4905078;29;20867;-70
2023/11/03 00:05:08;;;;;;;3.87;1.20;;;11.00;81.90;;;;;;4931069;29;20463;-72
2023/11/03 00:07:35;;;;;;;6.17;1.43;;;11.00;81.60;;;;;;4937946;29;20960;-68
2023/11/03 00:10:05;;;;;;;5.53;1.57;;;11.00;81.50;;;;;;4941061;29;20426;-69
2023/11/03 00:12:31;;;;;;;5.07;1.97;;;11.00;81.20;;;;;;4931209;29;20426;-70
2023/11/03 00:14:57;;;;;;;4.30;1.07;;;11.10;80.90;;;;;;4940128;29;20451;-70
2023/11/03 00:17:23;;;;;;;3.20;1.43;;;11.00;81.00;;;;;;4931684;29;20720;-70
2023/11/03 00:19:48;;;;;;;6.17;1.40;;;11.00;80.90;;;;;;4915242;29;20219;-71
2023/11/03 00:22:14;;;;;;;7.90;1.27;;;11.00;80.70;;;;;;4913413;29;20210;-70
2023/11/03 00:24:40;;;;;;;3.23;1.27;;;11.00;80.50;;;;;;4929658;29;20605;-69
2023/11/03 00:27:06;;;;;;;2.70;1.60;;;11.00;80.40;;;;;;4932612;29;20194;-68
2023/11/03 00:29:32;;;;;;;6.03;1.20;;;11.00;80.40;;;;;;4925051;29;20451;-69
2023/11/03 00:31:57;;;;;;;3.03;1.30;;;11.00;80.20;;;;;;4930549;29;20187;-70
2023/11/03 00:34:23;;;;;;;3.50;1.13;;;11.00;80.10;;;;;;4936343;29;20210;-70
2023/11/03 00:36:50;;;;;;;3.00;1.43;;;11.00;80.10;;;;;;4939887;29;20225;-70
2023/11/03 00:39:18;;;;;;;3.33;1.33;;;11.00;80.10;;;;;;4931186;29;20201;-72
2023/11/03 00:41:47;;;;;;;5.63;1.30;;;10.90;80.20;;;;;;4914827;29;20432;-70
2023/11/03 00:44:15;;;;;;;4.50;1.17;;;10.90;80.30;;;;;;4935411;29;20465;-69
2023/11/03 00:46:42;;;;;;;4.33;1.20;;;10.90;80.30;;;;;;4928520;29;20715;-69
2023/11/03 00:49:08;;;;;;;4.33;1.90;;;11.00;79.90;;;;;;4911052;29;20428;-70
2023/11/03 00:51:35;;;;;;;4.07;1.10;;;10.90;79.70;;;;;;4925445;29;20427;-70
2023/11/03 00:54:03;;;;;;;3.80;1.20;;;10.90;79.80;;;;;;4942262;29;20431;-70
2023/11/03 00:56:32;;;;;;;2.30;1.00;;;10.90;79.40;;;;;;4942055;29;20426;-70
2023/11/03 00:58:58;;;;;;;3.77;1.13;;;11.00;79.90;;;;;;4928181;29;20513;-69
2023/11/03 01:01:24;;;;;;;5.70;1.20;;;10.90;79.60;;;;;;4923533;29;20443;-70
2023/11/03 01:03:52;;;;;;;3.03;1.00;;;11.00;79.40;;;;;;4894514;29;20355;-69
2023/11/03 01:06:18;;;;;;;5.70;1.37;;;10.90;79.40;;;;;;4924591;29;20730;-72
2023/11/03 01:08:44;;;;;;;3.03;1.23;;;10.90;79.20;;;;;;4925441;29;20488;-70
2023/11/03 01:11:09;;;;;;;1.90;1.13;;;10.90;79.30;;;;;;4922907;29;20201;-68
2023/11/03 01:13:39;;;;;;;3.87;1.07;;;10.90;79.50;;;;;;4937848;29;20202;-72
2023/11/03 01:16:08;;;;;;;2.60;1.07;;;10.90;79.60;;;;;;4909073;29;20496;-70
2023/11/03 01:18:35;;;;;;;3.20;0.90;;;10.90;79.70;;;;;;4925235;29;20461;-70
2023/11/03 01:21:03;;;;;;;9.67;1.40;;;10.90;79.60;;;;;;4922225;29;20477;-70
2023/11/03 01:23:29;;;;;;;3.20;0.90;;;10.90;79.70;;;;;;4933956;29;20532;-70
2023/11/03 01:25:55;;;;;;;3.80;1.20;;;10.90;79.60;;;;;;4935794;29;20613;-70
2023/11/03 01:28:21;;;;;;;2.50;1.30;;;10.90;79.50;;;;;;4938135;29;20497;-70
2023/11/03 01:30:48;;;;;;;2.27;0.90;;;10.90;79.70;;;;;;4905696;29;20195;-68
2023/11/03 01:33:14;;;;;;;3.83;1.33;;;10.90;79.40;;;;;;4905531;29;20522;-70
2023/11/03 01:35:39;;;;;;;5.93;1.00;;;10.90;79.50;;;;;;4922522;29;20530;-69
2023/11/03 01:38:05;;;;;;;5.40;1.33;;;10.80;79.90;;;;;;4923251;29;20435;-70
2023/11/03 01:40:31;;;;;;;3.33;0.93;;;10.90;79.90;;;;;;4905462;29;20179;-70
2023/11/03 01:42:56;;;;;;;1.30;0.73;;;10.80;80.20;;;;;;4931497;29;20296;-70
2023/11/03 01:45:22;;;;;;;2.83;1.17;;;10.80;80.60;;;;;;4939962;29;20495;-71
2023/11/03 01:47:48;;;;;;;2.70;1.00;;;10.80;80.80;;;;;;4935041;29;20504;-68
2023/11/03 01:50:15;;;;;;;3.00;1.23;;;10.80;80.80;;;;;;4929821;29;20186;-69
2023/11/03 01:52:43;;;;;;;1.50;0.90;;;10.70;81.00;;;;;;4898137;29;20188;-72
2023/11/03 01:55:09;;;;;;;3.40;0.90;;;10.70;81.20;;;;;;4912346;29;20462;-70
2023/11/03 01:57:35;;;;;;;2.40;0.73;;;10.70;81.50;;;;;;4921602;29;20450;-69
2023/11/03 02:00:03;;;;;;;3.63;0.80;;;10.70;81.80;;;;;;4923760;29;20417;-70
2023/11/03 02:02:33;;;;;;;1.73;0.90;;;10.70;82.00;;;;;;4924363;29;20218;-70
2023/11/03 02:05:01;;;;;;;4.07;1.00;;;10.70;82.30;;;;;;4921566;29;20497;-69
2023/11/03 02:07:28;;;;;;;2.10;0.97;;;10.70;82.70;;;;;;4904866;29;20501;-69
2023/11/03 02:09:54;;;;;;;3.23;0.97;;;10.60;82.90;;;;;;4923597;29;20455;-70
2023/11/03 02:12:19;;;;;;;2.40;0.80;;;10.60;83.10;;;;;;4906849;29;20241;-70
2023/11/03 02:14:45;;;;;;;1.40;0.80;;;10.60;83.40;;;;;;4910979;29;20218;-69
2023/11/03 02:17:10;;;;;;;1.57;0.70;;;10.60;83.50;;;;;;4921394;29;20190;-70
2023/11/03 02:19:37;;;;;;;3.40;1.00;;;10.60;83.60;;;;;;4921500;29;20201;-69
2023/11/03 02:22:02;;;;;;;2.17;0.93;;;10.60;83.80;;;;;;4927025;29;20493;-69
2023/11/03 02:24:28;;;;;;;2.97;0.90;;;10.60;84.00;;;;;;4936106;29;20458;-69
2023/11/03 02:26:54;;;;;;;2.80;0.80;;;10.60;84.30;;;;;;4921751;29;20587;-70
2023/11/03 02:29:20;;;;;;;2.70;0.90;;;10.60;84.60;;;;;;4920817;29;20179;-70
2023/11/03 02:31:46;;;;;;;4.80;1.43;;;10.60;84.50;;;;;;4915425;29;20432;-69
2023/11/03 02:34:11;;;;;;;3.40;1.00;;;10.60;85.00;;;;;;4939812;29;20425;-70
2023/11/03 02:36:37;;;;;;;2.67;0.90;;;10.60;85.20;;;;;;4913854;29;20198;-70
2023/11/03 02:39:03;;;;;;;2.53;0.87;;;10.50;85.30;;;;;;4940552;29;20273;-70
2023/11/03 02:41:28;;;;;;;3.17;0.80;;;10.50;85.40;;;;;;4938879;29;20187;-70
2023/11/03 02:43:54;;;;;;;9.50;1.40;;;10.50;85.60;;;;;;4925180;29;20264;-69
2023/11/03 02:46:19;;;;;;;2.50;0.83;;;10.50;85.90;;;;;;4903600;29;20498;-70
2023/11/03 02:48:45;;;;;;;2.60;0.80;;;10.50;86.20;;;;;;4904288;29;20198;-70
2023/11/03 02:51:11;;;;;;;4.33;1.10;;;10.50;86.40;;;;;;4920597;29;20436;-70
2023/11/03 02:53:37;;;;;;;3.40;0.80;;;10.40;86.20;;;;;;4921516;29;20477;-69
2023/11/03 02:56:03;;;;;;;2.43;1.00;;;10.50;86.60;;;;;;4920691;29;20242;-69
2023/11/03 02:58:34;;;;;;;6.20;2.90;;;10.50;86.90;;;;;;4929175;29;20634;-70
2023/11/03 03:01:00;;;;;;;2.43;0.87;;;10.50;87.10;;;;;;4911806;29;20706;-69
2023/11/03 03:03:26;;;;;;;2.87;0.90;;;10.50;87.40;;;;;;4925707;29;20472;-70
2023/11/03 03:05:52;;;;;;;3.10;1.37;;;10.40;87.40;;;;;;4938909;29;20676;-70
2023/11/03 03:08:17;;;;;;;3.30;1.00;;;10.50;87.30;;;;;;4907199;29;20785;-69
2023/11/03 03:10:43;;;;;;;4.60;1.30;;;10.50;87.50;;;;;;4932402;29;20192;-69
2023/11/03 03:13:08;;;;;;;3.17;1.10;;;10.40;87.40;;;;;;4928170;29;20482;-69
2023/11/03 03:15:34;;;;;;;3.20;0.97;;;10.40;87.60;;;;;;4906090;29;20229;-70
2023/11/03 03:17:59;;;;;;;4.73;1.37;;;10.30;87.80;;;;;;4921478;29;20269;-70
2023/11/03 03:20:25;;;;;;;5.43;1.23;;;10.20;88.40;;;;;;4913303;29;20206;-68
2023/11/03 03:22:51;;;;;;;3.53;1.40;;;10.10;89.30;;;;;;4924735;29;20182;-69
2023/11/03 03:25:18;;;;;;;1.97;0.83;;;10.00;90.20;;;;;;4938124;29;20501;-70
2023/11/03 03:27:44;;;;;;;2.30;1.00;;;9.90;91.10;;;;;;4928226;29;20438;-68
2023/11/03 03:30:10;;;;;;;3.77;1.10;;;9.80;91.70;;;;;;4923807;29;20422;-70
2023/11/03 03:32:36;;;;;;;4.80;1.30;;;9.70;92.10;;;;;;4907765;29;20190;-70
2023/11/03 03:35:02;;;;;;;1.63;0.70;;;9.70;92.40;;;;;;4907156;29;20461;-70
2023/11/03 03:37:27;;;;;;;4.80;1.20;;;9.70;92.80;;;;;;4922756;29;20542;-69
2023/11/03 03:39:53;;;;;;;2.53;0.97;;;9.60;93.20;;;;;;4903874;29;20615;-69
2023/11/03 03:42:19;;;;;;;2.10;1.00;;;9.70;93.40;;;;;;4925174;29;20197;-70
2023/11/03 03:44:45;;;;;;;2.77;1.90;;;9.60;93.60;;;;;;4902876;29;20553;-69
2023/11/03 03:47:11;;;;;;;2.93;1.20;;;9.60;94.10;;;;;;4921084;29;20426;-70
2023/11/03 03:49:37;;;;;;;4.37;1.20;;;9.60;94.30;;;;;;4928721;29;20466;-70
2023/11/03 03:52:03;;;;;;;3.53;1.00;;;9.50;94.70;;;;;;4906153;29;20501;-68
2023/11/03 03:54:29;;;;;;;5.37;1.20;;;9.50;95.10;;;;;;4905724;29;20220;-70
2023/11/03 03:56:54;;;;;;;2.60;1.50;;;9.40;95.50;;;;;;4922240;29;20514;-70
2023/11/03 03:59:20;;;;;;;2.50;1.30;;;9.40;95.90;;;;;;4906185;29;20270;-69
2023/11/03 04:01:46;;;;;;;2.40;1.20;;;9.30;96.30;;;;;;4920583;29;20606;-70
2023/11/03 04:04:12;;;;;;;1.83;0.80;;;9.30;96.90;;;;;;4920031;29;20206;-70
2023/11/03 04:06:38;;;;;;;2.90;0.70;;;9.20;97.60;;;;;;4920583;29;20434;-70
2023/11/03 04:09:05;;;;;;;2.43;0.97;;;9.10;98.60;;;;;;4937605;29;20197;-71
2023/11/03 04:11:30;;;;;;;6.50;1.10;;;9.00;99.00;;;;;;4925020;29;20189;-70
2023/11/03 04:13:56;;;;;;;3.13;1.20;;;9.00;99.60;;;;;;4926882;29;20433;-69
2023/11/03 04:16:22;;;;;;;4.93;1.20;;;9.00;99.90;;;;;;4926167;29;20221;-70
2023/11/03 04:18:48;;;;;;;4.70;1.00;;;9.00;99.90;;;;;;4923660;29;20277;-70
2023/11/03 04:21:14;;;;;;;4.30;1.17;;;9.00;99.90;;;;;;4923790;29;20987;-70
2023/11/03 04:23:39;;;;;;;3.63;0.90;;;9.00;99.90;;;;;;4923104;29;20218;-70
2023/11/03 04:26:05;;;;;;;1.83;0.90;;;9.00;99.90;;;;;;4922888;29;20274;-70
2023/11/03 04:28:33;;;;;;;2.87;1.00;;;9.00;99.90;;;;;;4933480;29;20605;-69
2023/11/03 04:30:58;;;;;;;3.40;0.80;;;8.90;99.90;;;;;;4942697;29;20178;-70
2023/11/03 04:33:24;;;;;;;2.60;1.10;;;8.90;99.90;;;;;;4930262;29;20425;-70
2023/11/03 04:35:50;;;;;;;3.37;1.47;;;8.90;99.90;;;;;;4936158;29;20213;-69
2023/11/03 04:38:15;;;;;;;3.90;1.40;;;9.00;99.90;;;;;;4929471;29;20196;-69
2023/11/03 04:40:41;;;;;;;2.40;1.30;;;9.00;99.90;;;;;;4922854;29;20565;-69
2023/11/03 04:43:07;;;;;;;7.77;1.97;;;9.00;99.90;;;;;;4924350;29;20738;-69
2023/11/03 04:45:32;;;;;;;5.90;1.80;;;9.00;99.90;;;;;;4925950;29;20465;-69
2023/11/03 04:47:58;;;;;;;3.30;1.50;;;8.90;99.90;;;;;;4923620;29;20194;-71
2023/11/03 04:50:23;;;;;;;3.83;2.17;;;8.80;99.90;;;;;;4924041;29;20281;-69
2023/11/03 04:52:49;;;;;;;4.00;1.90;;;8.80;99.90;;;;;;4923278;29;20324;-71
2023/11/03 04:55:14;;;;;;;3.83;1.07;;;8.70;99.90;;;;;;4932981;29;20644;-70
2023/11/03 04:57:40;;;;;;;3.30;1.60;;;8.60;99.90;;;;;;4932324;29;20305;-70
2023/11/03 05:00:09;;;;;;;4.43;1.30;;;8.60;99.90;;;;;;4923483;29;20222;-70
2023/11/03 05:02:38;;;;;;;3.10;1.30;;;8.60;99.90;;;;;;4922765;29;20238;-71
2023/11/03 05:05:05;;;;;;;2.80;1.30;;;8.60;99.90;;;;;;4932735;29;20904;-71
2023/11/03 05:07:37;;;;;;;4.73;1.90;;;8.50;99.90;;;;;;4942655;29;20421;-70
2023/11/03 05:10:05;;;;;;;6.07;1.50;;;8.50;99.90;;;;;;4924866;29;20433;-70
2023/11/03 05:12:30;;;;;;;6.17;1.50;;;8.50;99.90;;;;;;4933798;29;20502;-70
2023/11/03 05:14:56;;;;;;;7.07;1.80;;;8.50;99.90;;;;;;4927982;29;20455;-70
2023/11/03 05:17:22;;;;;;;6.97;1.67;;;8.50;99.90;;;;;;4927118;29;20229;-71
2023/11/03 05:19:48;;;;;;;6.57;1.67;;;8.50;99.90;;;;;;4941816;29;20216;-70
2023/11/03 05:22:15;;;;;;;5.23;1.80;;;8.50;99.90;;;;;;4942676;29;20248;-71
2023/11/03 05:24:43;;;;;;;4.83;2.03;;;8.50;99.90;;;;;;4925159;29;20477;-71
2023/11/03 05:27:09;;;;;;;6.50;2.00;;;8.50;99.90;;;;;;4927957;29;20873;-70
2023/11/03 05:29:36;;;;;;;6.23;1.90;;;8.50;99.90;;;;;;4931957;29;20418;-70
2023/11/03 05:32:02;;;;;;;5.77;1.63;;;8.40;99.90;;;;;;4922295;29;20415;-70
2023/11/03 05:34:28;;;;;;;6.53;1.70;;;8.40;99.90;;;;;;4929514;29;20444;-70
2023/11/03 05:36:53;;;;;;;7.23;2.10;;;8.40;99.90;;;;;;4944968;29;20521;-69
2023/11/03 05:39:19;;;;;;;7.60;3.17;;;8.40;99.90;;;;;;4941356;29;20221;-68
2023/11/03 05:41:45;;;;;;;6.27;1.93;;;8.40;99.90;;;;;;4939700;29;20212;-70
2023/11/03 05:44:10;;;;;;;5.17;1.70;;;8.40;99.90;;;;;;4936256;29;20222;-69
2023/11/03 05:46:36;;;;;;;3.10;1.20;;;8.40;99.90;;;;;;4922342;29;20240;-71
2023/11/03 05:49:01;;;;;;;5.60;1.67;;;8.30;99.90;;;;;;4926537;29;20257;-70
2023/11/03 05:51:27;;;;;;;4.57;1.63;;;8.30;99.90;;;;;;4941213;29;20225;-70
2023/11/03 05:53:52;;;;;;;11.03;1.77;;;8.30;99.90;;;;;;4931944;29;20268;-70
2023/11/03 05:56:18;;;;;;;3.67;2.03;;;8.30;99.90;;;;;;4935584;29;20210;-70
2023/11/03 05:58:44;;;;;;;7.83;2.70;;;8.30;99.90;;;;;;4944872;29;20307;-69
2023/11/03 06:01:09;;;;;;;7.20;2.27;;;8.30;99.90;;;;;;4923273;29;20186;-69
2023/11/03 06:03:35;;;;;;;4.90;1.80;;;8.30;99.90;;;;;;4922044;29;20210;-70
2023/11/03 06:06:02;;;;;;;6.57;2.00;;;8.30;99.90;;;;;;4932815;29;20629;-72
2023/11/03 06:08:27;;;;;;;8.70;2.93;;;8.30;99.90;;;;;;4941927;29;20642;-70
2023/11/03 06:10:53;;;;;;;5.70;2.27;;;8.30;99.90;;;;;;4941219;29;20500;-69
2023/11/03 06:13:18;;;;;;;12.63;3.57;;;8.30;99.90;;;;;;4941265;29;20186;-71
2023/11/03 06:15:44;;;;;;;10.57;2.40;;;8.30;99.90;;;;;;4931474;29;20209;-70
2023/11/03 06:18:10;;;;;;;6.00;1.80;;;8.30;99.90;;;;;;4941484;29;20602;-70
2023/11/03 06:20:35;;;;;;;4.97;1.80;;;8.30;99.90;;;;;;4932998;29;20492;-71
2023/11/03 06:23:01;;;;;;;11.13;2.00;;;8.30;99.90;;;;;;4940627;29;20193;-71
2023/11/03 06:25:29;;;;;;;3.37;1.70;;;8.30;99.90;;;;;;4923792;29;20221;-73
2023/11/03 06:27:55;;;;;;;10.70;2.30;;;8.30;99.90;;;;;;4927120;29;20210;-70
2023/11/03 06:30:21;;;;;;;4.10;2.27;;;8.30;99.90;;;;;;4931060;29;20706;-71
2023/11/03 06:32:46;;;;;;;6.63;1.80;;;8.30;99.90;;;;;;4942062;29;20428;-71
2023/11/03 06:35:12;;;;;;;3.40;1.20;;;8.30;99.90;;;;;;4941757;29;20621;-71
2023/11/03 06:37:38;;;;;;;7.40;1.50;;;8.30;99.90;;;;;;4918963;29;20198;-72
2023/11/03 06:40:04;;;;;;;4.03;1.37;;;8.30;99.90;;;;;;4891776;29;20206;-73
2023/11/03 06:42:29;;;;;;;4.00;1.53;;;8.20;99.90;;;;;;4938223;29;20213;-72
2023/11/03 06:44:55;;;;;;;6.57;2.23;;;8.30;99.90;;;;;;4937279;29;20478;-74
2023/11/03 06:47:21;;;;;;;5.10;2.13;;;8.20;99.90;;;;;;4920618;29;20589;-74
2023/11/03 06:49:47;;;;;;;10.53;2.50;;;8.20;99.90;;;;;;4938032;29;20190;-73
2023/11/03 06:52:13;;;;;;;8.93;2.93;;;8.30;99.90;;;;;;4921440;29;20182;-72
2023/11/03 06:54:39;;;;;;;7.73;1.80;;;8.30;99.90;;;;;;4926397;29;20305;-73
2023/11/03 06:57:08;;;;;;;5.20;2.17;;;8.40;99.90;;;;;;4921787;29;20500;-72
2023/11/03 06:59:34;;;;;;;10.77;3.73;;;8.40;99.90;;;;;;4934855;29;20217;-73
2023/11/03 07:02:00;;;;;;;7.00;3.30;;;8.40;99.90;;;;;;4929222;29;20434;-74
2023/11/03 07:04:25;;;;;;;11.23;3.13;;;8.40;99.90;;;;;;4908721;29;20732;-72
2023/11/03 07:06:51;;;;;;;7.03;2.73;;;8.40;99.90;;;;;;4924695;29;20205;-71
2023/11/03 07:09:18;;;;;;;5.13;2.00;;;8.50;99.90;;;;;;4929661;29;20190;-71
2023/11/03 07:11:44;;;;;;;6.43;2.07;;;8.50;99.90;;;;;;4923595;29;20195;-73
2023/11/03 07:14:10;;;;;;;7.23;2.60;;;8.60;99.90;;;;;;4933660;29;20448;-70
2023/11/03 07:16:39;;;;;;;5.53;2.53;;;8.60;99.90;;;;;;4933992;29;20876;-73
2023/11/03 07:19:06;;;;;;;8.47;2.50;;;8.70;99.90;;;;;;4934132;29;20803;-71
2023/11/03 07:21:34;;;;;;;8.80;2.63;;;8.60;99.90;;;;;;4931794;29;20403;-72
2023/11/03 07:23:59;;;;;;;8.57;2.70;;;8.70;99.90;;;;;;4930548;29;20537;-72
2023/11/03 07:26:27;;;;;;;13.03;4.30;;;8.80;99.90;;;;;;4930675;29;20475;-73
2023/11/03 07:28:52;;;;;;;7.73;3.27;;;8.80;99.90;;;;;;4923051;29;20289;-71
2023/11/03 07:31:18;;;;;;;6.63;2.30;;;8.80;99.90;;;;;;4922186;29;20481;-71
2023/11/03 07:33:43;;;;;;;3.50;2.40;;;8.90;99.90;;;;;;4923293;29;20197;-70
2023/11/03 07:36:10;;;;;;;5.60;2.03;;;8.90;99.90;;;;;;4942474;29;20210;-72
2023/11/03 07:38:35;;;;;;;8.47;3.50;;;8.90;99.90;;;;;;4903024;29;20593;-75
2023/11/03 07:41:02;;;;;;;7.93;3.20;;;8.90;99.90;;;;;;4903717;29;20442;-74
2023/11/03 07:43:29;;;;;;;7.53;3.37;;;8.90;99.90;;;;;;4932431;29;20265;-73
2023/11/03 07:45:55;;;;;;;7.27;3.87;;;9.00;99.90;;;;;;4924946;29;20533;-72
2023/11/03 07:48:22;;;;;;;6.00;2.50;;;9.10;99.90;;;;;;4938508;29;20417;-71
2023/11/03 07:50:49;;;;;;;12.23;3.63;;;9.10;99.90;;;;;;4921934;29;20519;-73
2023/11/03 07:53:15;;;;;;;6.60;3.10;;;9.20;99.90;;;;;;4948787;29;20428;-72
2023/11/03 07:55:40;;;;;;;5.23;2.50;;;9.20;99.90;;;;;;4947943;29;20445;-73
2023/11/03 07:58:06;;;;;;;5.03;2.53;;;9.30;99.90;;;;;;4936801;29;20505;-71
2023/11/03 08:00:32;;;;;;;7.53;2.90;;;9.30;99.90;;;;;;4927680;29;20594;-74
2023/11/03 08:02:59;;;;;;;5.87;2.20;;;9.40;99.90;;;;;;4929422;29;20190;-72
2023/11/03 08:05:25;;;;;;;3.23;2.07;;;9.60;99.90;;;;;;4932460;29;20531;-75
2023/11/03 08:07:51;;;;;;;5.10;1.97;;;9.70;99.90;;;;;;4935133;29;20427;-74
2023/11/03 08:10:16;;;;;;;6.00;2.10;;;10.00;99.90;;;;;;4916595;29;20468;-69
2023/11/03 08:12:42;;;;;;;5.50;2.13;;;10.10;99.90;;;;;;4947122;29;20201;-71
2023/11/03 08:15:08;;;;;;;5.33;2.17;;;10.30;99.90;;;;;;4937609;29;20225;-73
2023/11/03 08:17:38;;;;;;;5.40;2.17;;;10.50;99.90;;;;;;4944866;29;20454;-74
2023/11/03 08:20:05;;;;;;;4.60;2.30;;;10.70;99.90;;;;;;4924437;29;20724;-72
2023/11/03 08:22:33;;;;;;;4.40;1.83;;;10.80;99.90;;;;;;4919760;29;20422;-76
2023/11/03 08:25:03;;;;;;;3.43;1.70;;;11.00;99.90;;;;;;4939694;29;20469;-72
2023/11/03 08:27:29;;;;;;;5.67;1.93;;;11.10;99.60;;;;;;4920154;29;20501;-74
2023/11/03 08:29:56;;;;;;;5.50;1.83;;;11.20;98.50;;;;;;4932585;29;20418;-71
2023/11/03 08:32:30;;;;;;;6.00;2.10;;;11.30;97.60;;;;;;4942576;29;20517;-72
2023/11/03 08:34:56;;;;;;;5.80;1.73;;;11.50;95.80;;;;;;4941142;29;20460;-73
2023/11/03 08:37:22;;;;;;;5.50;2.13;;;11.60;94.40;;;;;;4932365;29;20434;-72
2023/11/03 08:39:49;;;;;;;9.73;4.47;;;11.60;94.20;;;;;;4940568;29;20470;-73
2023/11/03 08:42:14;;;;;;;17.40;8.40;;;11.60;93.80;;;;;;4937016;29;20432;-73
2023/11/03 08:44:40;;;;;;;12.37;7.23;;;11.70;93.00;;;;;;4941193;29;20500;-73
2023/11/03 08:47:07;;;;;;;9.83;5.80;;;11.60;93.00;;;;;;4938985;29;20490;-71
2023/11/03 08:49:34;;;;;;;14.60;6.40;;;11.70;93.00;;;;;;4931531;29;20426;-75
2023/11/03 08:52:00;;;;;;;9.13;5.47;;;11.70;92.60;;;;;;4924866;29;20467;-71
2023/11/03 08:54:25;;;;;;;16.50;8.10;;;11.80;92.30;;;;;;4924067;29;20456;-72
2023/11/03 08:56:53;;;;;;;14.63;8.53;;;11.90;92.10;;;;;;4950094;29;20196;-73
2023/11/03 08:59:18;;;;;;;14.57;8.30;;;11.90;92.60;;;;;;4938587;29;20235;-71
2023/11/03 09:01:44;;;;;;;12.93;5.83;;;11.90;92.70;;;;;;4913196;29;20428;-73
2023/11/03 09:04:10;;;;;;;32.70;19.10;;;11.90;91.90;;;;;;4930188;29;20201;-75
2023/11/03 09:06:36;;;;;;;15.77;8.50;;;11.90;92.30;;;;;;4920115;29;20266;-72
2023/11/03 09:09:06;;;;;;;15.73;9.93;;;11.90;92.20;;;;;;4928240;29;20625;-72
2023/11/03 09:11:32;;;;;;;24.97;15.83;;;11.80;92.70;;;;;;4935074;29;20450;-71
2023/11/03 09:14:01;;;;;;;12.57;5.57;;;11.90;90.70;;;;;;4938945;29;20500;-73
2023/11/03 09:16:28;;;;;;;12.03;4.97;;;11.80;90.60;;;;;;4929381;29;20531;-74
2023/11/03 09:18:55;;;;;;;15.53;4.23;;;11.70;90.40;;;;;;4918275;29;20872;-71
2023/11/03 09:21:21;;;;;;;13.73;4.20;;;11.60;90.60;;;;;;4921343;29;20199;-72
2023/11/03 09:23:47;;;;;;;9.60;4.50;;;11.60;90.40;;;;;;4915741;29;20551;-73
2023/11/03 09:26:13;;;;;;;10.17;4.03;;;11.70;89.90;;;;;;4942752;29;20638;-73
2023/11/03 09:28:39;;;;;;;9.33;4.10;;;11.80;90.00;;;;;;4929659;29;20446;-71
2023/11/03 09:31:05;;;;;;;7.60;2.97;;;11.90;87.40;;;;;;4928868;29;20414;-72
2023/11/03 09:33:31;;;;;;;7.87;3.87;;;12.00;86.30;;;;;;4930795;29;20577;-75
2023/11/03 09:35:57;;;;;;;11.00;6.43;;;12.00;87.30;;;;;;4929133;29;20439;-72
2023/11/03 09:38:22;;;;;;;7.40;3.73;;;12.20;85.80;;;;;;4944111;29;20272;-71
2023/11/03 09:40:48;;;;;;;8.17;2.43;;;12.30;84.30;;;;;;4933379;29;20192;-72
2023/11/03 09:43:14;;;;;;;5.60;2.60;;;12.50;83.20;;;;;;4938361;29;20196;-72
2023/11/03 09:45:41;;;;;;;14.37;2.60;;;12.60;80.90;;;;;;4915646;29;20233;-75
2023/11/03 09:48:12;;;;;;;12.23;2.43;;;12.70;78.30;;;;;;4927492;29;20512;-74
2023/11/03 09:50:38;;;;;;;4.07;1.77;;;12.80;78.30;;;;;;4937132;29;20507;-73
2023/11/03 09:53:11;;;;;;;6.30;1.60;;;12.90;77.50;;;;;;4928441;29;21083;-72
2023/11/03 09:55:37;;;;;;;7.10;1.83;;;13.10;75.10;;;;;;4931177;29;20949;-72
2023/11/03 09:58:05;;;;;;;7.50;2.40;;;13.10;73.20;;;;;;4907694;29;20478;-72
2023/11/03 10:00:32;;;;;;;7.63;1.60;;;12.90;73.30;;;;;;4928051;29;20431;-71
2023/11/03 10:02:59;;;;;;;7.40;1.90;;;12.90;73.00;;;;;;4942104;29;20455;-72
2023/11/03 10:05:29;;;;;;;5.10;1.60;;;12.90;72.80;;;;;;4935213;29;20495;-75
2023/11/03 10:08:03;;;;;;;7.57;1.87;;;12.90;72.70;;;;;;4920640;29;20446;-74
2023/11/03 10:10:30;;;;;;;4.53;2.83;;;12.90;72.90;;;;;;4935075;29;20707;-75
2023/11/03 10:12:57;;;;;;;4.07;1.47;;;12.80;72.40;;;;;;4938910;29;20442;-74
2023/11/03 10:15:24;;;;;;;7.03;1.60;;;12.70;72.20;;;;;;4928749;29;20602;-72
2023/11/03 10:17:50;;;;;;;6.23;1.93;;;12.80;72.10;;;;;;4927659;29;20425;-72
2023/11/03 10:20:20;;;;;;;15.80;2.70;;;12.80;72.70;;;;;;4910671;29;20462;-73
2023/11/03 10:22:47;;;;;;;4.87;1.40;;;12.70;72.50;;;;;;4930076;29;20512;-72
2023/11/03 10:25:14;;;;;;;2.97;1.77;;;12.60;72.10;;;;;;4940582;29;20563;-74
2023/11/03 10:27:40;;;;;;;4.27;1.70;;;12.60;71.90;;;;;;4929502;29;20475;-73
2023/11/03 10:30:06;;;;;;;8.63;2.50;;;12.50;73.00;;;;;;4938407;29;20439;-74
2023/11/03 10:32:33;;;;;;;6.27;2.00;;;12.40;73.70;;;;;;4937623;29;20237;-73
2023/11/03 10:35:05;;;;;;;6.20;2.10;;;12.50;74.00;;;;;;4930319;29;20460;-76
2023/11/03 10:37:35;;;;;;;4.93;1.90;;;12.40;74.60;;;;;;4929063;29;20456;-74
2023/11/03 10:40:00;;;;;;;7.47;1.60;;;12.40;75.00;;;;;;4926476;29;20462;-72
2023/11/03 10:42:29;;;;;;;6.73;2.10;;;12.30;75.30;;;;;;4906611;29;20426;-75
2023/11/03 10:44:57;;;;;;;6.47;1.70;;;12.20;76.30;;;;;;4941267;29;20317;-75
2023/11/03 10:47:27;;;;;;;8.93;1.97;;;12.30;77.00;;;;;;4935341;29;20706;-75
2023/11/03 10:50:05;;;;;;;6.20;2.10;;;12.30;77.40;;;;;;4918012;29;20437;-77
2023/11/03 10:52:41;;;;;;;4.57;1.70;;;12.40;77.70;;;;;;4944118;29;20447;-74
2023/11/03 10:55:13;;;;;;;6.27;2.33;;;12.50;77.60;;;;;;4895733;29;20750;-73
2023/11/03 10:57:38;;;;;;;10.80;2.93;;;12.50;76.70;;;;;;4936351;29;20463;-73
2023/11/03 11:00:12;;;;;;;8.37;1.80;;;12.50;76.10;;;;;;4927314;29;20509;-72
2023/11/03 11:02:57;;;;;;;5.63;2.87;;;12.50;75.60;;;;;;4930874;29;20184;-74
2023/11/03 11:05:39;;;;;;;4.83;2.00;;;12.50;75.60;;;;;;4927200;29;20488;-74
2023/11/03 11:08:06;;;;;;;6.13;2.90;;;12.40;76.00;;;;;;4903273;29;20466;-74
2023/11/03 11:10:37;;;;;;;10.13;2.70;;;12.50;76.10;;;;;;4925524;29;20429;-74
2023/11/03 11:13:04;;;;;;;6.20;2.03;;;12.50;75.80;;;;;;4934257;29;20496;-73
2023/11/03 11:15:30;;;;;;;7.53;2.03;;;12.60;75.90;;;;;;4928028;29;20457;-73
2023/11/03 11:18:12;;;;;;;13.50;2.70;;;12.80;75.30;;;;;;4920439;29;20426;-74
2023/11/03 11:20:39;;;;;;;6.30;2.37;;;12.90;74.00;;;;;;4944729;29;20208;-74
2023/11/03 11:23:07;;;;;;;11.57;2.90;;;13.10;73.10;;;;;;4897604;29;20435;-75
2023/11/03 11:25:36;;;;;;;8.00;2.30;;;13.20;72.80;;;;;;4943940;29;20485;-73
2023/11/03 11:28:02;;;;;;;6.93;1.50;;;13.30;72.00;;;;;;4941482;29;20516;-75
2023/11/03 11:30:32;;;;;;;5.60;2.07;;;13.30;72.00;;;;;;4938409;29;20425;-73
2023/11/03 11:32:58;;;;;;;8.90;1.90;;;13.30;71.70;;;;;;4930209;29;20422;-74
2023/11/03 11:35:24;;;;;;;4.00;1.50;;;13.30;70.80;;;;;;4911300;29;20454;-74
2023/11/03 11:37:50;;;;;;;9.60;2.33;;;13.30;70.50;;;;;;4939327;29;20486;-73
2023/11/03 11:40:18;;;;;;;10.53;2.20;;;13.30;70.90;;;;;;4917151;29;20521;-73
2023/11/03 11:42:44;;;;;;;5.77;1.60;;;13.30;70.30;;;;;;4934862;29;20471;-71
2023/11/03 11:45:11;;;;;;;5.63;1.83;;;13.30;70.60;;;;;;4942680;29;20503;-76
2023/11/03 11:47:44;;;;;;;8.63;1.80;;;13.30;70.00;;;;;;4946800;29;20421;-74
2023/11/03 11:50:11;;;;;;;8.20;2.30;;;13.40;69.70;;;;;;4931025;29;20819;-71
2023/11/03 11:52:37;;;;;;;9.07;2.33;;;13.50;70.30;;;;;;4928219;29;20442;-74
2023/11/03 11:55:04;;;;;;;15.53;4.07;;;13.50;69.20;;;;;;4904346;29;20450;-72
2023/11/03 11:57:30;;;;;;;6.77;1.93;;;13.40;69.60;;;;;;4927994;29;20441;-74
2023/11/03 11:59:56;;;;;;;7.33;3.43;;;13.50;69.60;;;;;;4921209;29;20505;-76
2023/11/03 12:02:23;;;;;;;8.73;2.57;;;13.60;69.50;;;;;;4909615;29;20257;-76
2023/11/03 12:04:54;;;;;;;18.97;2.80;;;13.60;69.40;;;;;;4930025;29;20474;-76
2023/11/03 12:07:30;;;;;;;13.90;2.90;;;13.60;69.20;;;;;;4921596;29;20430;-74
2023/11/03 12:09:56;;;;;;;7.90;2.17;;;13.50;70.30;;;;;;4936570;29;20484;-76
2023/11/03 12:12:22;;;;;;;4.87;1.90;;;13.50;70.70;;;;;;4926897;29;20421;-71
2023/11/03 12:14:48;;;;;;;11.50;3.60;;;13.50;71.00;;;;;;4932243;29;20453;-75
2023/11/03 12:17:15;;;;;;;11.03;2.40;;;13.50;71.00;;;;;;4926984;29;20493;-71
2023/11/03 12:19:44;;;;;;;7.77;2.70;;;13.70;71.00;;;;;;4937326;29;20182;-75
2023/11/03 12:22:20;;;;;;;9.37;2.87;;;13.90;69.30;;;;;;4939157;29;20484;-76
2023/11/03 12:24:50;;;;;;;5.07;1.87;;;13.90;68.40;;;;;;4911323;29;20772;-75
2023/11/03 12:27:19;;;;;;;9.03;2.13;;;14.00;68.50;;;;;;4945936;29;20445;-74
2023/11/03 12:29:47;;;;;;;15.23;3.20;;;14.10;67.70;;;;;;4923610;29;20416;-74
2023/11/03 12:32:14;;;;;;;6.63;2.23;;;14.20;66.60;;;;;;4928795;29;20798;-74
2023/11/03 12:34:41;;;;;;;11.50;2.77;;;14.20;65.80;;;;;;4937946;29;20742;-74
2023/11/03 12:37:09;;;;;;;8.53;2.10;;;14.10;65.40;;;;;;4923002;29;20541;-74
2023/11/03 12:39:48;;;;;;;6.13;2.43;;;14.10;66.30;;;;;;4924153;29;20414;-73
2023/11/03 12:42:13;;;;;;;12.77;3.00;;;14.00;66.50;;;;;;4914850;29;20429;-72
2023/11/03 12:45:00;;;;;;;8.17;2.17;;;14.10;65.80;;;;;;4940959;29;20520;-74